Federal Way, Washington
Current Conditions -  °F | °C
As of 9:53 PM on Tuesday 21 Oct 2014 (Local Time) from KSEA Reporting Station
Overcast Overcast  
Wind Chill: 59°   Ceiling: 7000
Heat Index: 59°   Visibility: 10mi
Dew Point: 45°   Wind: 13mph
Humidity: 60%   Direction: 180°S
Pressure: 29.8"   Gusts: 22mph
Location:  47.3°N, 122.32°W
Report Text: KSEA 220453Z 18011G19KT 10SM BKN070 OVC095 15/07 A2980 RMK AO2 SLP095 T01500072
Loading
Personal Weather Stations






























Interactive Weather Map
Tropical Storm Tracking
New forecast layout! Learn more

10-Day Weather Forecast

Advertisements
Track Severe Weather on mobile